Time;durP1;ratioP1;P1;durP2;ratioP2;P2;SDS_P1;SDS_P2;PMS_P1;PMS_P2;Temp;Humidity;BMP_temperature;BMP_pressure;BME280_temperature;BME280_humidity;BME280_pressure;Samples;Min_cycle;Max_cycle;Signal;HPM_P1;HPM_P2
2021/09/01 00:01:06;;;;;;;8.13;7.15;;;13.40;99.90;;;;;;4996265;28;20235;-60
2021/09/01 00:03:33;;;;;;;10.27;6.93;;;13.40;99.90;;;;;;4981929;28;20723;-60
2021/09/01 00:06:00;;;;;;;14.50;8.32;;;13.30;99.90;;;;;;4996241;28;20697;-60
2021/09/01 00:08:27;;;;;;;12.40;7.82;;;13.30;99.90;;;;;;4995839;28;20256;-60
2021/09/01 00:10:54;;;;;;;8.95;6.85;;;13.30;99.90;;;;;;4996371;28;20253;-60
2021/09/01 00:13:21;;;;;;;9.63;6.63;;;13.30;99.90;;;;;;4995850;28;20197;-60
2021/09/01 00:15:48;;;;;;;8.60;6.75;;;13.30;99.90;;;;;;4995794;28;20226;-60
2021/09/01 00:18:15;;;;;;;7.88;6.22;;;13.30;99.90;;;;;;4985559;28;20432;-60
2021/09/01 00:20:42;;;;;;;7.25;6.55;;;13.30;99.90;;;;;;4995672;28;20233;-60
2021/09/01 00:23:14;;;;;;;7.65;6.05;;;13.30;99.90;;;;;;5000141;28;20264;-60
2021/09/01 00:25:42;;;;;;;7.32;6.63;;;13.20;99.90;;;;;;4999602;28;20201;-60
2021/09/01 00:28:10;;;;;;;15.82;8.15;;;13.10;99.90;;;;;;4998324;28;20420;-60
2021/09/01 00:30:37;;;;;;;10.45;7.47;;;13.10;99.90;;;;;;4999218;28;20206;-60
2021/09/01 00:33:04;;;;;;;12.32;8.00;;;13.00;99.90;;;;;;4994273;28;20205;-60
2021/09/01 00:35:31;;;;;;;10.20;7.47;;;12.90;99.90;;;;;;4992258;28;20431;-60
2021/09/01 00:37:58;;;;;;;6.75;6.10;;;12.80;99.90;;;;;;4994766;28;20264;-60
2021/09/01 00:40:28;;;;;;;8.82;6.85;;;12.80;99.90;;;;;;4979632;28;20271;-60
2021/09/01 00:42:55;;;;;;;12.23;8.02;;;12.70;99.90;;;;;;4980597;28;20241;-60
2021/09/01 00:45:22;;;;;;;13.05;7.10;;;12.70;99.90;;;;;;4980981;28;20260;-60
2021/09/01 00:47:50;;;;;;;9.93;6.53;;;12.80;99.90;;;;;;4980498;28;20333;-61
2021/09/01 00:50:17;;;;;;;12.80;7.28;;;13.00;99.90;;;;;;4985063;28;20197;-60
2021/09/01 00:52:44;;;;;;;7.82;6.90;;;13.00;99.90;;;;;;4999440;28;20209;-60
2021/09/01 00:55:12;;;;;;;10.00;7.28;;;12.50;99.90;;;;;;4999289;28;20249;-60
2021/09/01 00:57:41;;;;;;;15.70;7.18;;;13.10;99.90;;;;;;4999371;28;20201;-60
2021/09/01 01:00:12;;;;;;;8.18;7.38;;;13.10;99.90;;;;;;4992053;28;20213;-60
2021/09/01 01:02:40;;;;;;;12.52;7.47;;;13.10;99.90;;;;;;4999406;28;20204;-60
2021/09/01 01:05:09;;;;;;;8.68;7.13;;;13.10;99.90;;;;;;4998566;28;20292;-60
2021/09/01 01:07:36;;;;;;;8.38;5.63;;;13.20;99.90;;;;;;4999025;28;20256;-60
2021/09/01 01:10:03;;;;;;;9.43;6.93;;;13.20;99.90;;;;;;4998305;28;20206;-60
2021/09/01 01:12:32;;;;;;;8.90;7.13;;;13.20;99.90;;;;;;4999042;28;20335;-60
2021/09/01 01:14:59;;;;;;;8.05;6.20;;;13.10;99.90;;;;;;4998374;28;20236;-60
2021/09/01 01:17:27;;;;;;;9.25;6.40;;;13.20;99.90;;;;;;4998665;28;20212;-60
2021/09/01 01:19:54;;;;;;;9.77;5.65;;;13.20;99.90;;;;;;4999303;28;20202;-59
2021/09/01 01:22:24;;;;;;;10.05;7.10;;;13.20;99.90;;;;;;4998495;28;20229;-59
2021/09/01 01:24:59;;;;;;;10.15;6.93;;;13.20;99.90;;;;;;4997953;28;20321;-59
2021/09/01 01:27:47;;;;;;;12.10;6.80;;;13.20;99.90;;;;;;4997662;28;20216;-60
2021/09/01 01:30:17;;;;;;;8.10;6.65;;;13.20;99.90;;;;;;4998890;28;20202;-59
2021/09/01 01:32:47;;;;;;;8.35;5.82;;;13.20;99.90;;;;;;4997431;28;20250;-59
2021/09/01 01:35:28;;;;;;;9.43;6.20;;;13.20;99.90;;;;;;4998555;28;20209;-59
2021/09/01 01:37:57;;;;;;;7.95;5.93;;;13.10;99.90;;;;;;4992955;28;20567;-60
2021/09/01 01:40:25;;;;;;;10.43;7.35;;;13.10;99.90;;;;;;4978854;28;20280;-59
2021/09/01 01:42:56;;;;;;;9.05;7.07;;;13.10;99.90;;;;;;4979196;28;20249;-60
2021/09/01 01:45:25;;;;;;;7.97;6.53;;;13.10;99.90;;;;;;4978193;28;20253;-60
2021/09/01 01:47:52;;;;;;;12.35;6.82;;;13.10;99.90;;;;;;4978853;28;20209;-60
2021/09/01 01:50:19;;;;;;;9.43;6.47;;;13.10;99.90;;;;;;4977994;28;20245;-60
2021/09/01 01:52:46;;;;;;;11.65;7.22;;;13.10;99.90;;;;;;4990244;28;20201;-60
2021/09/01 01:55:13;;;;;;;8.90;6.57;;;13.00;99.90;;;;;;4983687;28;20240;-60
2021/09/01 01:57:40;;;;;;;8.95;6.07;;;13.00;99.90;;;;;;4996374;28;20241;-60
2021/09/01 02:00:08;;;;;;;7.40;5.90;;;12.90;99.90;;;;;;4996570;28;20197;-60
2021/09/01 02:02:35;;;;;;;8.40;6.55;;;12.80;99.90;;;;;;4997849;28;20221;-60
2021/09/01 02:05:02;;;;;;;9.60;6.00;;;12.70;99.90;;;;;;4997516;28;20702;-60
2021/09/01 02:07:32;;;;;;;8.95;6.38;;;12.60;99.90;;;;;;4997863;28;20204;-60
2021/09/01 02:09:59;;;;;;;10.82;7.47;;;12.50;99.90;;;;;;4995654;28;20205;-61
2021/09/01 02:12:29;;;;;;;16.52;7.50;;;12.40;99.90;;;;;;4985834;28;20503;-59
2021/09/01 02:14:58;;;;;;;8.63;6.28;;;12.30;99.90;;;;;;4996926;28;20232;-60
2021/09/01 02:17:26;;;;;;;13.07;8.30;;;12.20;99.90;;;;;;4997241;28;20208;-61
2021/09/01 02:19:54;;;;;;;11.45;7.30;;;12.20;99.90;;;;;;4996266;28;20212;-59
2021/09/01 02:22:21;;;;;;;10.13;7.30;;;12.10;99.90;;;;;;4995330;28;20279;-60
2021/09/01 02:24:48;;;;;;;7.93;7.15;;;12.10;99.90;;;;;;4987035;28;20248;-60
2021/09/01 02:27:16;;;;;;;9.25;7.80;;;12.00;99.90;;;;;;4983104;28;20208;-60
2021/09/01 02:29:43;;;;;;;9.55;7.05;;;12.00;99.90;;;;;;4982264;28;20201;-60
2021/09/01 02:32:10;;;;;;;14.43;8.50;;;11.90;99.90;;;;;;4977815;28;20546;-60
2021/09/01 02:34:38;;;;;;;9.60;7.80;;;11.90;99.90;;;;;;4979067;28;20369;-60
2021/09/01 02:37:05;;;;;;;11.07;8.65;;;11.90;99.90;;;;;;4978576;28;20247;-60
2021/09/01 02:39:32;;;;;;;8.98;7.05;;;11.90;99.90;;;;;;4978364;28;20213;-59
2021/09/01 02:41:59;;;;;;;11.18;7.57;;;11.80;99.90;;;;;;4977680;28;20268;-61
2021/09/01 02:44:26;;;;;;;11.10;8.52;;;11.80;99.90;;;;;;4976785;28;20361;-61
2021/09/01 02:46:53;;;;;;;9.95;8.05;;;11.80;99.90;;;;;;4977738;28;20201;-60
2021/09/01 02:49:20;;;;;;;8.70;7.80;;;11.80;99.90;;;;;;4977302;28;20205;-60
2021/09/01 02:51:47;;;;;;;13.88;10.25;;;11.80;99.90;;;;;;4977501;28;20209;-60
2021/09/01 02:54:14;;;;;;;12.52;9.20;;;11.80;99.90;;;;;;4977898;28;20206;-59
2021/09/01 02:56:41;;;;;;;11.43;8.90;;;11.80;99.90;;;;;;4977181;28;20205;-60
2021/09/01 02:59:08;;;;;;;13.88;10.38;;;11.80;99.90;;;;;;4987928;28;20330;-61
2021/09/01 03:01:35;;;;;;;13.45;9.93;;;11.90;99.90;;;;;;4982972;28;20236;-60
2021/09/01 03:04:03;;;;;;;12.98;10.00;;;11.90;99.90;;;;;;4987981;28;20215;-61
2021/09/01 03:06:30;;;;;;;31.30;11.65;;;11.90;99.90;;;;;;4977167;28;20718;-61
2021/09/01 03:08:57;;;;;;;12.63;9.43;;;11.80;99.90;;;;;;4989581;28;20264;-60
2021/09/01 03:11:23;;;;;;;12.90;9.10;;;11.80;99.90;;;;;;4976636;28;20251;-61
2021/09/01 03:13:51;;;;;;;14.55;9.65;;;11.80;99.90;;;;;;4989914;28;20201;-60
2021/09/01 03:16:18;;;;;;;15.60;10.07;;;11.80;99.90;;;;;;4988988;28;20255;-60
2021/09/01 03:18:45;;;;;;;12.30;10.18;;;11.80;99.90;;;;;;4995976;28;20224;-59
2021/09/01 03:21:12;;;;;;;14.15;10.38;;;11.90;99.90;;;;;;4995293;28;20228;-60
2021/09/01 03:23:39;;;;;;;13.68;10.43;;;11.90;99.90;;;;;;4985151;28;20209;-60
2021/09/01 03:26:06;;;;;;;12.93;10.63;;;11.90;99.90;;;;;;4996143;28;20228;-60
2021/09/01 03:28:33;;;;;;;15.55;12.57;;;12.00;99.90;;;;;;4991106;28;20209;-59
2021/09/01 03:31:00;;;;;;;15.63;10.65;;;12.00;99.90;;;;;;4989111;28;20549;-59
2021/09/01 03:33:27;;;;;;;14.57;10.20;;;12.10;99.90;;;;;;4985667;28;20202;-60
2021/09/01 03:35:54;;;;;;;14.57;11.18;;;12.20;99.90;;;;;;4980165;28;20201;-59
2021/09/01 03:38:21;;;;;;;20.23;12.27;;;12.20;99.90;;;;;;4991932;28;20267;-59
2021/09/01 03:40:48;;;;;;;12.50;10.45;;;12.20;99.90;;;;;;4990928;28;20201;-60
2021/09/01 03:43:15;;;;;;;12.43;10.30;;;12.20;99.90;;;;;;4987412;28;20202;-60
2021/09/01 03:45:42;;;;;;;13.93;10.13;;;12.20;99.90;;;;;;4987770;28;20204;-60
2021/09/01 03:48:09;;;;;;;13.68;10.65;;;12.20;99.90;;;;;;4985798;28;20232;-59
2021/09/01 03:50:36;;;;;;;13.45;9.60;;;12.20;99.90;;;;;;4981014;28;20253;-59
2021/09/01 03:53:03;;;;;;;12.05;9.45;;;12.30;99.90;;;;;;4982310;28;20210;-59
2021/09/01 03:55:30;;;;;;;15.02;9.73;;;12.30;99.90;;;;;;4997550;28;20283;-60
2021/09/01 03:57:57;;;;;;;14.45;10.00;;;12.20;99.90;;;;;;4997613;28;20201;-61
2021/09/01 04:00:24;;;;;;;11.05;9.52;;;12.20;99.90;;;;;;4992907;28;20752;-60
2021/09/01 04:02:52;;;;;;;15.75;10.15;;;12.20;99.90;;;;;;4995004;28;20415;-60
2021/09/01 04:05:19;;;;;;;13.00;10.30;;;12.20;99.90;;;;;;4986503;28;20229;-60
2021/09/01 04:07:46;;;;;;;12.75;9.77;;;12.30;99.90;;;;;;5000101;28;20205;-59
2021/09/01 04:10:13;;;;;;;11.10;9.90;;;12.40;99.90;;;;;;4999307;28;20430;-60
2021/09/01 04:12:40;;;;;;;15.07;11.35;;;12.30;99.90;;;;;;4989693;28;20268;-59
2021/09/01 04:15:08;;;;;;;13.43;8.93;;;12.40;99.90;;;;;;4994614;28;20244;-60
2021/09/01 04:17:35;;;;;;;12.02;10.10;;;12.40;99.90;;;;;;4986786;28;20250;-60
2021/09/01 04:20:02;;;;;;;11.07;9.13;;;12.30;99.90;;;;;;4987445;28;20209;-60
2021/09/01 04:22:29;;;;;;;15.75;9.60;;;12.30;99.90;;;;;;5000024;28;20279;-59
2021/09/01 04:24:56;;;;;;;15.05;8.98;;;12.30;99.90;;;;;;4986910;28;20252;-60
2021/09/01 04:27:23;;;;;;;10.10;9.10;;;12.30;99.90;;;;;;4998797;28;20268;-60
2021/09/01 04:29:50;;;;;;;13.13;10.07;;;12.30;99.90;;;;;;4988207;28;20205;-61
2021/09/01 04:32:17;;;;;;;16.98;9.82;;;12.30;99.90;;;;;;4979801;28;20206;-60
2021/09/01 04:34:44;;;;;;;17.98;10.55;;;12.30;99.90;;;;;;4994194;28;20240;-60
2021/09/01 04:37:11;;;;;;;13.70;10.70;;;12.30;99.90;;;;;;4983470;28;20207;-60
2021/09/01 04:39:38;;;;;;;14.68;10.45;;;12.30;99.90;;;;;;4979644;28;20595;-61
2021/09/01 04:42:06;;;;;;;15.82;10.98;;;12.40;99.90;;;;;;4979882;28;20408;-60
2021/09/01 04:44:33;;;;;;;17.67;10.85;;;12.50;99.90;;;;;;4990955;28;20203;-60
2021/09/01 04:47:00;;;;;;;14.80;11.25;;;12.50;99.90;;;;;;4986675;28;20213;-61
2021/09/01 04:49:27;;;;;;;13.52;10.77;;;12.60;99.90;;;;;;4988484;28;20771;-61
2021/09/01 04:51:54;;;;;;;16.40;10.40;;;12.60;99.90;;;;;;4979678;28;20205;-61
2021/09/01 04:54:21;;;;;;;13.15;9.35;;;12.60;99.90;;;;;;4988883;28;20210;-59
2021/09/01 04:56:48;;;;;;;13.82;10.00;;;12.60;99.90;;;;;;4984257;28;20200;-59
2021/09/01 04:59:15;;;;;;;11.77;10.00;;;12.70;99.90;;;;;;4994908;28;20320;-60
2021/09/01 05:01:42;;;;;;;10.90;9.80;;;12.70;99.90;;;;;;4998383;28;20296;-59
2021/09/01 05:04:10;;;;;;;11.38;10.18;;;12.80;99.90;;;;;;4988464;28;20252;-60
2021/09/01 05:06:37;;;;;;;10.60;9.45;;;12.80;99.90;;;;;;4978687;28;20209;-61
2021/09/01 05:09:04;;;;;;;10.13;8.95;;;12.70;99.90;;;;;;4979722;28;20202;-61
2021/09/01 05:11:31;;;;;;;9.77;8.77;;;13.00;99.90;;;;;;4991988;28;20201;-60
2021/09/01 05:13:58;;;;;;;11.20;9.68;;;12.90;99.90;;;;;;4989292;28;20198;-60
2021/09/01 05:16:25;;;;;;;8.82;7.95;;;13.00;99.90;;;;;;4997652;28;20561;-60
2021/09/01 05:18:52;;;;;;;12.70;8.85;;;13.10;99.90;;;;;;4980251;28;20397;-60
2021/09/01 05:21:20;;;;;;;9.70;8.15;;;13.20;99.90;;;;;;4991241;28;20283;-60
2021/09/01 05:23:52;;;;;;;10.20;9.10;;;13.20;99.90;;;;;;4995436;28;20430;-60
2021/09/01 05:26:21;;;;;;;11.63;9.38;;;13.30;99.90;;;;;;4986766;28;20206;-59
2021/09/01 05:28:48;;;;;;;12.38;8.90;;;13.30;99.90;;;;;;4989317;28;20485;-60
2021/09/01 05:31:17;;;;;;;10.65;8.98;;;13.40;99.90;;;;;;4992681;28;20505;-60
2021/09/01 05:33:50;;;;;;;11.00;9.10;;;13.60;99.90;;;;;;4992507;28;20428;-60
2021/09/01 05:36:17;;;;;;;10.38;7.90;;;13.70;99.90;;;;;;4987762;28;20546;-61
2021/09/01 05:38:46;;;;;;;9.73;7.90;;;13.70;99.90;;;;;;4994958;28;20492;-60
2021/09/01 05:41:14;;;;;;;7.68;6.70;;;13.90;99.90;;;;;;4993148;28;20209;-60
2021/09/01 05:43:42;;;;;;;8.85;6.85;;;14.00;99.90;;;;;;4997709;28;20292;-60
2021/09/01 05:46:10;;;;;;;9.07;7.38;;;14.10;99.90;;;;;;4993814;28;20269;-60
2021/09/01 05:48:37;;;;;;;7.68;6.85;;;14.30;99.90;;;;;;4995364;28;20261;-60
2021/09/01 05:51:07;;;;;;;8.32;6.30;;;14.40;99.90;;;;;;4988852;28;20198;-62
2021/09/01 05:53:34;;;;;;;10.05;6.93;;;14.60;99.90;;;;;;4985550;28;20424;-60
2021/09/01 05:56:06;;;;;;;7.18;6.07;;;14.90;99.90;;;;;;4991187;28;20198;-60
2021/09/01 05:58:37;;;;;;;10.75;7.22;;;15.00;99.90;;;;;;4996061;28;20399;-60
2021/09/01 06:01:06;;;;;;;5.78;5.18;;;15.10;99.90;;;;;;4997989;28;20341;-62
2021/09/01 06:03:37;;;;;;;9.07;6.60;;;15.30;99.90;;;;;;4995129;28;20222;-61
2021/09/01 06:06:04;;;;;;;8.52;7.25;;;15.10;99.90;;;;;;4994986;28;20237;-61
2021/09/01 06:08:34;;;;;;;7.70;5.95;;;14.90;99.90;;;;;;4995790;28;20204;-62
2021/09/01 06:11:04;;;;;;;11.88;7.07;;;15.10;99.90;;;;;;4993655;28;20202;-60
2021/09/01 06:13:32;;;;;;;9.23;6.50;;;15.20;99.90;;;;;;4991078;28;20270;-60
2021/09/01 06:16:02;;;;;;;6.93;6.18;;;15.30;99.90;;;;;;4987789;28;20815;-60
2021/09/01 06:18:29;;;;;;;8.20;6.45;;;15.50;99.90;;;;;;4983869;28;20242;-61
2021/09/01 06:20:56;;;;;;;7.18;6.40;;;15.70;99.90;;;;;;4984646;28;20657;-61
2021/09/01 06:23:23;;;;;;;7.50;6.30;;;16.00;99.90;;;;;;4995133;28;20229;-61
2021/09/01 06:25:52;;;;;;;5.30;4.53;;;16.60;99.90;;;;;;4990039;28;20204;-60
2021/09/01 06:28:19;;;;;;;6.90;5.00;;;17.10;99.90;;;;;;4988505;28;20408;-60
2021/09/01 06:30:46;;;;;;;8.53;6.10;;;17.40;99.90;;;;;;4989504;28;20470;-61
2021/09/01 06:33:13;;;;;;;11.90;6.23;;;17.40;99.90;;;;;;4985797;28;20481;-61
2021/09/01 06:35:41;;;;;;;8.47;6.00;;;17.60;99.90;;;;;;4976155;28;20493;-61
2021/09/01 06:38:09;;;;;;;5.80;5.30;;;18.00;99.90;;;;;;4977091;28;20470;-61
2021/09/01 06:40:36;;;;;;;5.00;4.60;;;18.60;99.90;;;;;;4985363;28;20508;-60
2021/09/01 06:43:03;;;;;;;6.17;5.53;;;19.10;99.90;;;;;;4979971;28;20513;-60
2021/09/01 06:45:30;;;;;;;7.50;5.30;;;20.20;99.90;;;;;;4989496;28;20501;-61
2021/09/01 06:47:57;;;;;;;5.63;4.83;;;21.00;99.90;;;;;;4981977;28;20419;-60
2021/09/01 06:50:26;;;;;;;6.27;5.10;;;21.80;99.90;;;;;;4990282;28;20520;-60
2021/09/01 06:52:54;;;;;;;7.73;5.43;;;22.20;99.90;;;;;;4982628;28;20443;-59
2021/09/01 06:55:22;;;;;;;6.00;5.43;;;22.90;99.90;;;;;;4987482;28;20412;-60
2021/09/01 06:57:49;;;;;;;6.10;5.47;;;23.70;99.90;;;;;;4982123;28;20454;-60
2021/09/01 07:00:19;;;;;;;5.87;5.40;;;23.70;99.90;;;;;;4982354;28;20984;-61
2021/09/01 07:02:46;;;;;;;6.50;5.97;;;24.40;99.90;;;;;;4997147;28;20570;-61
2021/09/01 07:05:14;;;;;;;6.17;5.73;;;25.80;99.90;;;;;;4991583;28;20427;-61
2021/09/01 07:07:43;;;;;;;8.23;7.60;;;26.10;99.90;;;;;;4977872;28;20462;-60
2021/09/01 07:10:11;;;;;;;8.00;7.37;;;26.10;99.90;;;;;;4990510;28;20480;-60
2021/09/01 07:12:39;;;;;;;7.90;7.30;;;26.60;99.90;;;;;;4987197;28;20443;-60
2021/09/01 07:15:08;;;;;;;8.53;7.70;;;26.00;99.90;;;;;;4996529;28;20484;-60
2021/09/01 07:17:37;;;;;;;8.80;8.10;;;26.20;99.90;;;;;;4994933;28;20556;-60
2021/09/01 07:20:06;;;;;;;8.67;8.10;;;26.70;99.90;;;;;;4986200;28;20466;-60
2021/09/01 07:22:33;;;;;;;8.43;7.77;;;26.20;99.90;;;;;;4993223;28;20486;-61
2021/09/01 07:25:01;;;;;;;11.77;7.80;;;25.00;99.90;;;;;;4994300;28;20498;-61
2021/09/01 07:27:29;;;;;;;8.37;7.87;;;24.70;99.90;;;;;;4992221;28;20418;-61
2021/09/01 07:29:56;;;;;;;7.63;7.13;;;24.80;99.90;;;;;;4994817;28;20502;-61
2021/09/01 07:32:23;;;;;;;7.50;7.00;;;23.80;99.90;;;;;;4988849;28;20448;-61
2021/09/01 07:34:50;;;;;;;8.20;7.63;;;23.30;99.90;;;;;;4982918;28;20776;-61
2021/09/01 07:37:17;;;;;;;7.10;6.63;;;25.20;99.90;;;;;;4990613;28;20469;-61
2021/09/01 07:39:44;;;;;;;7.70;7.10;;;25.30;99.90;;;;;;4992776;28;20466;-62
2021/09/01 07:42:12;;;;;;;7.80;7.10;;;23.80;99.90;;;;;;4980521;28;20500;-62
2021/09/01 07:44:39;;;;;;;7.43;6.90;;;23.20;99.90;;;;;;4985005;28;20443;-61
2021/09/01 07:47:06;;;;;;;7.27;6.60;;;22.10;99.90;;;;;;4988037;28;20444;-60
2021/09/01 07:49:34;;;;;;;6.57;5.97;;;21.00;99.90;;;;;;4986699;28;20441;-62
2021/09/01 07:52:01;;;;;;;6.27;5.67;;;20.70;99.90;;;;;;4991458;28;20422;-61
2021/09/01 07:54:29;;;;;;;5.50;5.10;;;20.40;99.90;;;;;;4990305;28;20440;-61
2021/09/01 07:56:56;;;;;;;5.87;4.93;;;20.10;99.90;;;;;;4990778;28;20416;-61
2021/09/01 07:59:23;;;;;;;5.80;5.30;;;20.60;99.90;;;;;;4992396;28;20502;-60
2021/09/01 08:01:50;;;;;;;5.73;5.10;;;21.20;99.90;;;;;;4977510;28;20436;-61
2021/09/01 08:04:17;;;;;;;6.10;4.83;;;21.30;99.90;;;;;;4977572;28;20772;-61
2021/09/01 09:07:53;;;;;;;6.13;5.70;;;25.20;99.90;;;;;;4986324;28;20557;-69
2021/09/01 09:10:29;;;;;;;6.00;5.60;;;21.80;99.90;;;;;;4991604;28;20431;-69
2021/09/01 09:17:40;;;;;;;6.80;6.00;;;21.30;99.90;;;;;;4991307;28;20393;-69
2021/09/01 09:20:09;;;;;;;4.43;4.03;;;21.20;99.90;;;;;;4994326;28;20430;-60
2021/09/01 09:22:40;;;;;;;6.67;6.17;;;20.60;99.90;;;;;;4989641;28;20253;-62
2021/09/01 09:25:13;;;;;;;6.33;5.77;;;20.20;99.90;;;;;;4980140;28;20472;-61
2021/09/01 09:27:48;;;;;;;5.20;4.70;;;20.20;99.90;;;;;;4993250;28;20442;-61
2021/09/01 09:30:40;;;;;;;5.63;5.17;;;20.20;99.90;;;;;;4991651;28;20485;-60
2021/09/01 09:33:11;;;;;;;5.70;5.17;;;19.70;99.90;;;;;;4985192;28;20749;-60
2021/09/01 09:35:57;;;;;;;5.80;5.27;;;19.50;99.90;;;;;;4987247;28;20450;-60
2021/09/01 09:38:42;;;;;;;4.70;4.50;;;20.00;99.90;;;;;;4983658;28;20613;-62
2021/09/01 09:41:21;;;;;;;5.77;5.37;;;20.30;99.90;;;;;;4979415;28;20596;-61
2021/09/01 09:43:50;;;;;;;5.20;4.80;;;20.20;99.90;;;;;;4979004;28;20480;-62
2021/09/01 09:46:17;;;;;;;6.67;4.93;;;20.30;99.90;;;;;;4979637;28;20731;-61
2021/09/01 09:48:46;;;;;;;5.23;4.80;;;20.20;99.90;;;;;;4979285;28;20820;-62
2021/09/01 09:51:18;;;;;;;5.00;4.70;;;20.50;99.90;;;;;;4979550;28;20795;-61
2021/09/01 09:53:46;;;;;;;5.30;4.80;;;20.70;99.90;;;;;;4978168;28;20829;-61
2021/09/01 09:56:29;;;;;;;5.80;5.30;;;20.60;99.90;;;;;;4979521;28;20407;-61
2021/09/01 09:58:57;;;;;;;4.63;4.23;;;20.40;99.90;;;;;;4987594;28;20779;-60
2021/09/01 10:01:26;;;;;;;5.83;4.83;;;20.20;99.90;;;;;;4984635;28;20515;-61
2021/09/01 10:06:30;;;;;;;5.10;4.73;;;20.60;99.90;;;;;;5114465;27;20542;-58
2021/09/01 10:08:57;;;;;;;5.60;4.93;;;20.00;99.90;;;;;;5109427;28;20754;-58
2021/09/01 10:11:25;;;;;;;5.13;4.57;;;20.00;99.90;;;;;;5116434;28;20461;-60
2021/09/01 10:13:53;;;;;;;5.30;4.90;;;20.30;99.90;;;;;;5112600;28;20428;-58
2021/09/01 10:16:20;;;;;;;4.87;4.30;;;20.30;99.90;;;;;;5116348;28;20400;-59
2021/09/01 10:21:16;;;;;;;4.90;4.53;;;19.90;99.90;;;;;;5098047;22;20804;-58
2021/09/01 10:23:45;;;;;;;6.90;4.50;;;19.70;99.90;;;;;;5078522;28;20406;-58
2021/09/01 10:26:30;;;;;;;8.00;5.10;;;19.90;99.90;;;;;;5087455;28;20462;-57
2021/09/01 10:28:59;;;;;;;5.20;4.57;;;20.20;99.90;;;;;;5087170;28;20398;-61
2021/09/01 10:31:33;;;;;;;4.77;4.47;;;20.70;99.90;;;;;;5067004;28;20764;-60
2021/09/01 10:34:19;;;;;;;6.00;5.53;;;20.50;99.90;;;;;;5063545;28;20730;-60
2021/09/01 10:36:48;;;;;;;7.10;4.80;;;20.80;99.90;;;;;;5068773;28;20443;-58
2021/09/01 10:39:37;;;;;;;5.13;4.73;;;20.60;99.90;;;;;;5068916;28;20494;-61
2021/09/01 10:42:44;;;;;;;6.13;5.63;;;20.50;99.90;;;;;;5072047;28;20414;-59
2021/09/01 10:45:31;;;;;;;4.90;4.60;;;20.50;99.90;;;;;;5079800;28;20823;-57
2021/09/01 10:47:58;;;;;;;5.10;4.70;;;20.20;99.90;;;;;;5061690;28;20480;-57
2021/09/01 10:50:25;;;;;;;9.40;4.90;;;20.50;99.90;;;;;;5066915;28;20676;-61
2021/09/01 10:52:58;;;;;;;5.40;5.00;;;20.60;99.90;;;;;;5074759;28;20478;-59
2021/09/01 10:55:26;;;;;;;5.63;5.13;;;20.60;99.90;;;;;;5073542;28;20444;-61
2021/09/01 10:58:15;;;;;;;7.77;5.30;;;20.30;99.90;;;;;;5066434;28;20442;-58
2021/09/01 11:00:43;;;;;;;5.67;5.17;;;20.30;99.90;;;;;;5070841;28;20484;-58
2021/09/01 11:03:11;;;;;;;5.87;5.47;;;20.50;99.90;;;;;;5072642;28;20452;-60
2021/09/01 11:05:38;;;;;;;5.10;4.67;;;20.60;99.90;;;;;;5073712;28;20784;-58
2021/09/01 12:07:03;;;;;;;5.13;4.20;;;20.90;99.90;;;;;;5022840;28;20651;-61
2021/09/01 12:09:30;;;;;;;5.70;5.23;;;20.90;99.90;;;;;;4966550;28;20646;-59
2021/09/01 12:12:02;;;;;;;5.00;4.60;;;20.90;99.90;;;;;;4977916;28;20438;-58
2021/09/01 12:14:31;;;;;;;4.20;3.87;;;21.00;99.90;;;;;;4983945;28;20459;-61
2021/09/01 12:17:22;;;;;;;4.50;4.20;;;21.00;99.90;;;;;;4963166;28;20485;-59
2021/09/01 12:19:58;;;;;;;4.60;4.20;;;21.00;99.90;;;;;;4948591;28;20444;-60
2021/09/01 12:22:29;;;;;;;5.57;5.10;;;21.10;99.90;;;;;;4943482;28;20506;-57
2021/09/01 12:25:08;;;;;;;5.40;4.93;;;21.30;99.90;;;;;;4954653;28;20445;-58
2021/09/01 12:27:39;;;;;;;5.13;4.83;;;21.50;99.90;;;;;;4950101;28;20417;-55
2021/09/01 12:30:10;;;;;;;5.10;4.80;;;21.40;99.90;;;;;;4949904;28;20410;-55
2021/09/01 12:32:38;;;;;;;5.70;4.40;;;21.10;99.90;;;;;;4951162;28;20442;-57
2021/09/01 12:35:09;;;;;;;5.00;4.70;;;21.10;99.90;;;;;;4947653;28;20530;-57
2021/09/01 12:37:38;;;;;;;6.70;4.33;;;21.50;99.90;;;;;;4952514;28;20520;-58
2021/09/01 12:40:10;;;;;;;4.70;4.30;;;21.80;99.90;;;;;;4959507;28;20447;-57
2021/09/01 12:42:44;;;;;;;5.50;5.00;;;21.80;99.90;;;;;;4953113;28;20445;-57
2021/09/01 12:45:18;;;;;;;5.27;4.97;;;21.80;99.90;;;;;;4958775;28;20457;-59
2021/09/01 12:48:03;;;;;;;5.07;4.67;;;22.10;99.90;;;;;;4952587;28;20414;-57
2021/09/01 12:50:33;;;;;;;5.20;4.80;;;22.30;99.90;;;;;;4946937;28;20432;-60
2021/09/01 12:53:02;;;;;;;4.90;4.50;;;22.30;99.90;;;;;;4947650;28;20447;-57
2021/09/01 12:55:35;;;;;;;4.60;4.30;;;22.60;99.90;;;;;;4949755;28;20796;-54
2021/09/01 12:58:03;;;;;;;5.07;4.67;;;22.70;99.90;;;;;;4951074;28;20479;-57
2021/09/01 13:00:30;;;;;;;5.30;4.90;;;22.50;99.90;;;;;;4960135;28;20502;-57
2021/09/01 13:02:57;;;;;;;5.37;4.87;;;22.30;99.90;;;;;;4948782;28;20455;-59
2021/09/01 13:05:25;;;;;;;5.27;4.83;;;22.40;99.90;;;;;;4950174;28;20554;-57
2021/09/01 13:07:53;;;;;;;4.53;4.23;;;22.00;99.90;;;;;;4943600;28;20517;-58
2021/09/01 13:10:22;;;;;;;5.50;5.03;;;21.70;99.90;;;;;;4951466;28;20494;-58
2021/09/01 13:12:52;;;;;;;5.93;5.23;;;21.60;99.90;;;;;;4945738;28;20426;-57
2021/09/01 13:15:20;;;;;;;4.50;4.20;;;21.50;99.90;;;;;;4949170;28;20469;-57
2021/09/01 13:17:47;;;;;;;8.00;6.43;;;21.20;99.90;;;;;;4938705;28;20418;-57
2021/09/01 13:20:17;;;;;;;5.87;5.50;;;21.20;99.90;;;;;;4952488;28;20436;-57
2021/09/01 13:22:44;;;;;;;5.40;4.97;;;21.30;99.90;;;;;;4956291;28;20571;-56
2021/09/01 13:25:14;;;;;;;4.93;4.53;;;21.10;99.90;;;;;;4957590;28;20455;-59
2021/09/01 13:27:41;;;;;;;5.20;4.80;;;21.20;99.90;;;;;;4958470;28;20814;-59
2021/09/01 13:34:17;;;;;;;5.90;5.43;;;21.10;99.90;;;;;;5177198;27;20695;-64
2021/09/01 13:36:44;;;;;;;5.10;4.80;;;21.30;99.90;;;;;;5157425;27;20435;-63
2021/09/01 13:39:11;;;;;;;5.40;5.00;;;21.40;99.90;;;;;;5157431;27;20505;-64
2021/09/01 13:41:38;;;;;;;5.03;4.63;;;21.30;99.90;;;;;;5155265;27;20399;-62
2021/09/01 13:44:05;;;;;;;5.80;5.30;;;21.30;99.90;;;;;;5154231;27;20497;-63
2021/09/01 13:46:33;;;;;;;5.83;5.17;;;21.30;99.90;;;;;;5157326;27;20661;-64
2021/09/01 13:49:01;;;;;;;4.97;4.67;;;21.10;99.90;;;;;;5157652;27;20444;-63
2021/09/01 13:51:28;;;;;;;5.17;4.77;;;21.20;99.90;;;;;;5154915;27;20777;-63
2021/09/01 13:53:56;;;;;;;5.07;4.67;;;21.20;99.90;;;;;;5139807;27;20448;-63
2021/09/01 13:56:24;;;;;;;5.60;4.60;;;21.40;99.90;;;;;;5156891;27;20508;-64
2021/09/01 13:58:51;;;;;;;5.20;4.70;;;21.20;99.90;;;;;;5155887;27;20488;-62
2021/09/01 14:01:20;;;;;;;5.10;4.80;;;20.80;99.90;;;;;;5156629;27;20418;-62
2021/09/01 14:03:47;;;;;;;5.03;4.50;;;20.70;99.90;;;;;;5157027;27;20454;-62
2021/09/01 14:06:15;;;;;;;7.00;4.70;;;20.80;99.90;;;;;;5141431;27;20464;-62
2021/09/01 14:08:46;;;;;;;5.53;5.03;;;20.60;99.90;;;;;;5156840;27;20499;-63
2021/09/01 14:11:13;;;;;;;6.50;5.07;;;20.60;99.90;;;;;;5157498;27;20432;-63
2021/09/01 14:13:40;;;;;;;4.93;4.53;;;20.70;99.90;;;;;;5151814;27;20444;-63
2021/09/01 14:16:07;;;;;;;6.40;5.77;;;20.80;99.90;;;;;;5166608;27;20448;-64
2021/09/01 14:18:34;;;;;;;7.80;4.73;;;20.90;99.90;;;;;;5156264;27;20424;-64
2021/09/01 14:21:01;;;;;;;4.87;4.50;;;21.00;99.90;;;;;;5152439;27;20403;-63
2021/09/01 14:23:29;;;;;;;5.60;5.20;;;21.00;99.90;;;;;;5156218;27;20410;-63
2021/09/01 14:25:56;;;;;;;5.60;5.10;;;21.10;99.90;;;;;;5156148;27;20428;-64
2021/09/01 14:28:23;;;;;;;5.23;4.73;;;21.30;99.90;;;;;;5156857;27;20459;-63
2021/09/01 14:30:50;;;;;;;5.37;4.97;;;21.20;99.90;;;;;;5156162;27;20437;-63
2021/09/01 14:33:18;;;;;;;4.93;4.53;;;21.10;99.90;;;;;;5155957;27;20450;-63
2021/09/01 14:35:45;;;;;;;5.13;4.63;;;21.10;99.90;;;;;;5156811;27;20446;-62
2021/09/01 14:38:12;;;;;;;5.77;5.20;;;20.90;99.90;;;;;;5156519;27;20496;-62
2021/09/01 14:40:40;;;;;;;5.87;4.87;;;20.80;99.90;;;;;;5156736;27;20467;-63
2021/09/01 14:43:07;;;;;;;5.27;4.90;;;20.80;99.90;;;;;;5154444;27;20639;-62
2021/09/01 14:45:35;;;;;;;4.93;4.47;;;20.80;99.90;;;;;;5142435;27;20486;-63
2021/09/01 14:48:02;;;;;;;5.03;4.63;;;20.80;99.90;;;;;;5141798;27;20420;-63
2021/09/01 14:50:30;;;;;;;5.17;4.77;;;20.80;99.90;;;;;;5138713;27;20408;-63
2021/09/01 14:52:57;;;;;;;5.80;5.27;;;20.80;99.90;;;;;;5142488;27;20476;-63
2021/09/01 14:55:25;;;;;;;8.40;5.27;;;20.60;99.90;;;;;;5141547;27;20445;-63
2021/09/01 14:57:52;;;;;;;5.97;5.37;;;20.60;99.90;;;;;;5141522;27;20480;-59
2021/09/01 15:00:19;;;;;;;5.23;4.83;;;20.60;99.90;;;;;;5140590;27;20673;-63
2021/09/01 15:02:47;;;;;;;6.43;5.50;;;20.60;99.90;;;;;;5141224;27;20412;-65
2021/09/01 15:05:14;;;;;;;4.10;3.80;;;20.70;99.90;;;;;;5139202;27;20669;-64